createdAt,value
2023-05-02T05:22:21.109Z,45.8664
2023-05-02T05:23:15.261Z,42.8897
2023-05-02T05:24:17.115Z,34.8224
2023-05-02T05:25:18.948Z,31.0947
2023-05-02T05:26:20.790Z,36.9894
2023-05-02T05:27:22.647Z,44.6124
2023-05-02T05:28:24.486Z,50.9816
2023-05-02T05:29:26.339Z,56.2116
2023-05-02T05:30:28.186Z,58.3567
2023-05-02T05:31:30.063Z,52.6670
2023-05-02T05:32:31.852Z,56.0319
2023-05-02T05:33:33.712Z,60.4139
2023-05-02T05:34:35.552Z,63.9857
2023-05-02T05:35:37.358Z,67.0076
2023-05-02T05:36:39.193Z,62.5553
2023-05-02T05:37:41.024Z,48.6880
2023-05-02T05:38:42.972Z,49.5263
2023-05-02T05:39:44.722Z,55.2974
2023-05-02T05:40:46.576Z,60.1113
2023-05-02T05:41:48.411Z,63.8837
2023-05-02T05:42:50.255Z,64.7753
2023-05-02T05:43:52.084Z,52.6810
2023-05-02T05:44:53.924Z,50.6870
2023-05-02T05:45:55.751Z,56.0097
2023-05-02T05:46:57.620Z,60.6941
2023-05-02T05:47:59.486Z,64.2095
2023-05-02T05:49:01.262Z,65.9243
2023-05-02T05:50:03.398Z,54.5504
2023-05-02T05:51:04.931Z,47.6209
2023-05-02T05:52:06.767Z,52.7783
2023-05-02T05:53:08.732Z,58.0554
2023-05-02T05:54:10.451Z,62.2434
2023-05-02T05:55:12.306Z,65.4176
2023-05-02T05:56:14.154Z,59.0091
2023-05-02T05:57:15.998Z,46.6540
2023-05-02T05:58:17.814Z,49.1156
2023-05-02T05:59:19.666Z,54.8674
2023-05-02T06:00:21.496Z,59.7094
2023-05-02T06:01:23.331Z,63.3626
2023-05-02T06:02:25.204Z,63.3359
2023-05-02T06:03:27.125Z,49.7964
2023-05-02T06:04:28.916Z,44.2218
2023-05-02T06:05:30.715Z,49.9140
2023-05-02T06:06:32.576Z,55.6469
2023-05-02T06:07:34.362Z,60.2575
2023-05-02T06:08:36.277Z,63.6599
2023-05-02T06:09:38.037Z,58.4511
2023-05-02T06:10:39.883Z,45.0666
2023-05-02T06:11:41.703Z,45.1916
2023-05-02T06:12:43.544Z,51.4771
2023-05-02T06:13:45.377Z,56.7950
2023-05-02T06:14:47.210Z,61.0257
2023-05-02T06:15:49.081Z,63.2269
2023-05-02T06:16:50.885Z,52.6990
2023-05-02T06:17:52.818Z,44.3107
2023-05-02T06:18:54.554Z,49.0198
2023-05-02T06:19:56.364Z,54.8638
2023-05-02T06:20:58.226Z,59.4772
2023-05-02T06:22:00.108Z,62.9573
2023-05-02T06:23:01.895Z,60.3004
2023-05-02T06:24:03.723Z,48.1842
2023-05-02T06:25:05.564Z,49.7658
2023-05-02T06:26:07.393Z,55.4083
2023-05-02T06:27:09.225Z,60.0647
2023-05-02T06:28:11.073Z,63.4358
2023-05-02T06:29:12.892Z,63.5729
2023-05-02T06:30:14.766Z,52.7252
2023-05-02T06:31:16.621Z,53.1540
2023-05-02T06:32:18.410Z,57.0173
2023-05-02T06:33:20.239Z,61.4817
2023-05-02T06:34:22.084Z,64.3564
2023-05-02T06:35:23.894Z,64.2019
2023-05-02T06:36:25.738Z,50.7929
2023-05-02T06:37:27.572Z,43.4770
2023-05-02T06:38:29.417Z,48.7381
2023-05-02T06:39:31.244Z,54.6158
2023-05-02T06:40:33.096Z,59.4264
2023-05-02T06:41:34.933Z,63.1562
2023-05-02T06:42:36.771Z,59.8683
2023-05-02T06:43:38.679Z,46.1004
2023-05-02T06:44:40.435Z,44.4420
2023-05-02T06:45:42.292Z,50.6452
2023-05-02T06:46:44.196Z,56.1192
2023-05-02T06:47:46.066Z,60.5238
2023-05-02T06:48:47.829Z,63.3956
2023-05-02T06:49:49.645Z,54.6808
2023-05-02T06:50:51.487Z,47.5040
2023-05-02T06:51:53.297Z,52.4506
2023-05-02T06:52:55.175Z,57.6389
2023-05-02T06:53:56.969Z,61.6622
2023-05-02T06:54:58.840Z,64.4929
2023-05-02T06:56:00.645Z,58.8203
2023-05-02T06:57:02.496Z,46.7584
2023-05-02T06:58:04.354Z,49.3010
2023-05-02T06:59:06.159Z,55.0408
2023-05-02T07:00:08.208Z,59.8153
2023-05-02T07:01:09.895Z,63.3757
2023-05-02T07:02:11.667Z,63.1118
2023-05-02T07:03:13.565Z,50.5177
2023-05-02T07:04:15.390Z,49.4138
2023-05-02T07:05:17.234Z,54.9816
2023-05-02T07:06:19.144Z,59.7465
2023-05-02T07:07:20.870Z,63.3930
2023-05-02T07:08:22.725Z,64.8492
2023-05-02T07:09:24.552Z,53.9105
2023-05-02T07:10:26.430Z,49.6910
2023-05-02T07:11:28.218Z,54.9386
2023-05-02T07:12:30.041Z,59.7421
2023-05-02T07:13:31.881Z,63.4111
2023-05-02T07:14:33.724Z,65.6533
2023-05-02T07:15:35.559Z,56.5056
2023-05-02T07:16:37.489Z,46.9140
2023-05-02T07:17:39.245Z,51.2342
2023-05-02T07:18:41.080Z,56.6333
2023-05-02T07:19:45.379Z,61.1293
2023-05-02T07:20:44.753Z,64.4400
2023-05-02T07:21:46.577Z,50.1993
2023-05-02T07:22:48.410Z,46.2007
2023-05-02T07:23:50.237Z,45.5814
2023-05-02T07:24:52.078Z,45.3436
2023-05-02T07:25:53.906Z,45.2645
2023-05-02T07:27:03.570Z,45.0909
2023-05-02T07:27:57.609Z,44.9408
2023-05-02T07:28:59.437Z,44.9458
2023-05-02T07:30:01.841Z,44.9699
2023-05-02T07:31:03.102Z,44.9148
2023-05-02T07:32:04.979Z,44.8499
2023-05-02T07:33:06.830Z,44.7863
2023-05-02T07:34:08.621Z,44.7140
2023-05-02T07:35:10.489Z,44.5219
2023-05-02T07:36:12.291Z,44.6046
2023-05-02T07:37:22.111Z,44.6151
2023-05-02T07:38:16.006Z,44.6621
2023-05-02T07:39:17.796Z,44.5316
2023-05-02T07:40:19.636Z,44.5870
2023-05-02T07:41:21.515Z,44.7608
2023-05-02T07:42:23.319Z,44.7681
2023-05-02T07:43:25.141Z,44.7926
2023-05-02T07:44:26.978Z,44.7233
2023-05-02T07:45:28.819Z,44.6321
2023-05-02T07:46:30.689Z,44.6892
2023-05-02T07:47:32.480Z,44.6892
2023-05-02T07:48:34.312Z,44.6816
2023-05-02T07:49:36.145Z,44.7140
2023-05-02T07:50:37.969Z,44.6709
2023-05-02T07:51:39.811Z,44.7748
2023-05-02T07:52:41.634Z,44.7355
2023-05-02T07:53:43.466Z,44.7536
2023-05-02T07:54:45.295Z,44.6098
2023-05-02T07:55:47.134Z,44.5966
2023-05-02T07:56:48.988Z,44.5303
2023-05-02T07:57:50.823Z,44.5706
2023-05-02T07:58:52.687Z,44.5760
2023-05-02T07:59:54.500Z,44.5323
2023-05-02T08:00:56.311Z,44.5402
2023-05-02T08:01:58.162Z,44.4663
2023-05-02T08:03:00.132Z,44.4325
2023-05-02T08:04:01.985Z,44.5205
2023-05-02T08:05:03.689Z,44.4663
2023-05-02T08:06:05.542Z,44.3623
2023-05-02T08:07:07.334Z,44.4325
2023-05-02T08:08:09.175Z,44.3787
2023-05-02T08:09:11.006Z,44.2794
2023-05-02T08:10:12.824Z,44.3011
2023-05-02T08:11:14.662Z,44.2436
2023-05-02T08:12:16.499Z,44.3270
2023-05-02T08:13:18.334Z,44.2595
2023-05-02T08:14:20.187Z,44.2217
2023-05-02T08:15:22.033Z,37.6755
2023-05-02T08:16:23.899Z,31.7473
2023-05-02T08:17:25.686Z,30.2326
2023-05-02T08:18:27.513Z,36.3286
2023-05-02T08:19:29.358Z,43.9824
2023-05-02T08:20:31.211Z,50.5250
2023-05-02T08:21:33.120Z,55.9654
2023-05-02T08:22:34.927Z,58.7035
2023-05-02T08:23:36.733Z,55.4504
2023-05-02T08:24:38.586Z,59.3104
2023-05-02T08:25:40.403Z,63.5145
2023-05-02T08:26:42.220Z,67.0397
2023-05-02T08:27:44.077Z,69.9167
2023-05-02T08:28:45.901Z,64.1350
2023-05-02T08:29:47.757Z,49.1884
2023-05-02T08:30:49.604Z,45.6119
2023-05-02T08:31:51.446Z,51.3736
2023-05-02T08:32:53.288Z,57.0877
2023-05-02T08:33:55.128Z,61.8665
2023-05-02T08:34:56.936Z,65.7588
2023-05-02T08:35:58.787Z,60.0356
2023-05-02T08:37:00.605Z,49.0110
2023-05-02T08:38:02.470Z,51.8785
2023-05-02T08:39:04.289Z,57.4144
2023-05-02T08:40:06.128Z,62.2320
2023-05-02T08:41:07.961Z,66.1062
2023-05-02T08:42:09.791Z,65.4780
2023-05-02T08:43:11.651Z,51.8955
2023-05-02T08:44:13.476Z,47.8810
2023-05-02T08:45:16.520Z,53.3278
2023-05-02T08:46:17.278Z,58.7650
2023-05-02T08:47:19.209Z,63.2898
2023-05-02T08:48:21.012Z,66.7425
2023-05-02T08:49:22.673Z,59.3512
2023-05-02T08:50:24.515Z,47.6192
2023-05-02T08:51:26.368Z,49.9669
2023-05-02T08:52:28.182Z,55.6894
2023-05-02T08:53:30.035Z,60.7448
2023-05-02T08:54:31.861Z,64.9683
2023-05-02T08:55:33.702Z,65.5118
2023-05-02T08:56:35.544Z,53.2743
2023-05-02T08:57:37.384Z,51.9509
2023-05-02T08:58:39.208Z,57.1811
2023-05-02T08:59:41.063Z,62.0131
2023-05-02T09:00:42.956Z,65.9224
2023-05-02T09:01:44.833Z,67.8663
2023-05-02T09:02:46.668Z,56.0215
2023-05-02T09:03:48.512Z,48.0370
2023-05-02T09:04:50.320Z,52.5497
2023-05-02T09:05:52.100Z,58.0562
2023-05-02T09:06:53.959Z,62.6704
2023-05-02T09:07:55.755Z,66.4893
2023-05-02T09:08:57.778Z,62.5926
2023-05-02T09:09:59.508Z,49.6029
2023-05-02T09:11:01.289Z,50.7325
2023-05-02T09:12:03.126Z,56.3775
2023-05-02T09:13:04.997Z,61.3078
2023-05-02T09:14:06.820Z,65.3483
2023-05-02T09:15:08.641Z,66.3918
2023-05-02T09:16:10.515Z,53.3710
2023-05-02T09:17:12.332Z,47.3990
2023-05-02T09:18:14.162Z,52.6445
2023-05-02T09:19:16.013Z,58.2221
2023-05-02T09:20:17.847Z,62.7594
2023-05-02T09:21:21.284Z,66.4004
2023-05-02T09:22:21.560Z,60.4073
2023-05-02T09:23:23.375Z,48.3434
2023-05-02T09:24:25.223Z,50.6709
2023-05-02T09:25:27.126Z,56.3438
2023-05-02T09:26:30.354Z,61.2431
2023-05-02T09:27:30.804Z,65.2327
2023-05-02T09:28:32.641Z,65.3462
2023-05-02T09:29:34.454Z,51.9002
2023-05-02T09:30:36.297Z,48.0516
2023-05-02T09:31:55.032Z,53.5835
2023-05-02T09:32:40.974Z,58.9371
2023-05-02T09:33:41.818Z,63.3098
2023-05-02T09:34:43.649Z,66.5755
2023-05-02T09:35:45.539Z,56.7181
2023-05-02T09:36:47.320Z,44.6565
2023-05-02T09:37:49.155Z,47.3432
2023-05-02T09:38:51.018Z,53.6539
2023-05-02T09:39:52.826Z,58.9659
2023-05-02T09:40:54.667Z,63.3725
2023-05-02T09:41:56.513Z,64.5847
2023-05-02T09:42:58.320Z,52.3972
2023-05-02T09:44:00.181Z,49.9853
2023-05-02T09:45:02.093Z,55.3327
2023-05-02T09:46:03.868Z,60.4141
2023-05-02T09:47:05.691Z,64.5062
2023-05-02T09:48:07.553Z,67.0914
2023-05-02T09:49:09.363Z,56.6005
2023-05-02T09:50:11.196Z,45.0556
2023-05-02T09:51:13.026Z,47.7672
2023-05-02T09:52:14.848Z,53.9116
2023-05-02T09:53:16.690Z,59.1749
2023-05-02T09:54:18.531Z,63.5014
2023-05-02T09:55:20.376Z,64.4111
2023-05-02T09:56:23.896Z,51.8525
2023-05-02T09:57:24.035Z,48.9146
2023-05-02T09:58:25.882Z,54.4506
2023-05-02T09:59:27.726Z,59.6160
2023-05-02T10:00:29.567Z,63.8929
2023-05-02T10:01:31.404Z,66.8378
2023-05-02T10:02:33.281Z,57.1059
2023-05-02T10:03:35.081Z,46.4286
2023-05-02T10:04:36.955Z,49.8806
2023-05-02T10:05:38.761Z,55.6711
2023-05-02T10:06:40.678Z,60.6137
2023-05-02T10:07:42.443Z,64.6089
2023-05-02T10:08:44.285Z,63.6863
2023-05-02T10:09:46.148Z,50.8154
2023-05-02T10:10:47.937Z,50.6253
2023-05-02T10:11:49.785Z,56.0719
2023-05-02T10:12:51.614Z,60.9718
2023-05-02T10:13:53.461Z,65.0379
2023-05-02T10:14:55.323Z,66.5938
2023-05-02T10:15:57.259Z,54.3211
2023-05-02T10:16:58.988Z,50.2322
2023-05-02T10:18:00.934Z,55.5152
2023-05-02T10:19:02.664Z,60.5513
2023-05-02T10:20:04.504Z,64.6804
2023-05-02T10:21:06.334Z,67.5471
2023-05-02T10:22:08.184Z,58.3013
2023-05-02T10:23:10.018Z,52.4725
2023-05-02T10:24:11.862Z,57.1318
2023-05-02T10:25:13.737Z,61.8605
2023-05-02T10:26:15.542Z,65.7113
2023-05-02T10:27:17.373Z,68.5165
2023-05-02T10:28:19.206Z,59.6683
2023-05-02T10:29:21.047Z,47.9914
2023-05-02T10:30:22.884Z,51.0641
2023-05-02T10:31:24.838Z,56.6789
2023-05-02T10:32:26.613Z,61.4673
2023-05-02T10:33:28.370Z,65.3868
2023-05-02T10:34:30.210Z,64.4404
2023-05-02T10:35:32.045Z,50.4227
2023-05-02T10:36:33.880Z,47.0109
2023-05-02T10:37:35.751Z,52.8032
2023-05-02T10:38:37.612Z,58.2285
2023-05-02T10:39:39.406Z,62.7211
2023-05-02T10:40:41.241Z,66.0345
2023-05-02T10:41:43.095Z,57.5956
2023-05-02T10:42:44.915Z,50.3297
2023-05-02T10:43:46.787Z,54.8523
2023-05-02T10:44:48.589Z,59.9088
2023-05-02T10:45:50.419Z,64.1118
2023-05-02T10:46:52.283Z,67.3789
2023-05-02T10:47:54.145Z,60.8778
2023-05-02T10:48:55.920Z,47.0734
2023-05-02T10:49:57.765Z,47.0856
2023-05-02T10:50:59.597Z,53.1421
2023-05-02T10:52:01.424Z,58.4623
2023-05-02T10:53:03.275Z,62.8592
2023-05-02T10:54:05.110Z,65.3159
2023-05-02T10:55:06.938Z,54.2563
2023-05-02T10:56:08.814Z,47.7075
2023-05-02T10:57:10.613Z,52.7429
2023-05-02T10:58:12.471Z,58.0435
2023-05-02T10:59:14.300Z,62.5038
2023-05-02T11:00:16.140Z,66.0423
2023-05-02T11:01:18.004Z,60.0472
2023-05-02T11:02:19.893Z,48.2887
2023-05-02T11:03:21.698Z,50.8898
2023-05-02T11:04:23.493Z,56.4882
2023-05-02T11:05:25.352Z,61.2747
2023-05-02T11:06:27.191Z,65.1440
2023-05-02T11:07:29.039Z,64.4521
2023-05-02T11:08:30.867Z,51.1944
2023-05-02T11:09:32.721Z,49.9176
2023-05-02T11:10:34.564Z,55.3768
2023-05-02T11:11:36.367Z,60.3025
2023-05-02T11:12:38.203Z,64.4458
2023-05-02T11:13:40.062Z,66.5547
2023-05-02T11:14:41.874Z,55.1170
2023-05-02T11:15:43.768Z,46.8566
2023-05-02T11:16:45.592Z,51.5699
2023-05-02T11:17:47.416Z,57.0557
2023-05-02T11:18:49.241Z,61.6895
2023-05-02T11:19:51.089Z,65.4679
2023-05-02T11:20:52.906Z,61.3318
2023-05-02T11:21:54.749Z,48.0658
2023-05-02T11:22:56.585Z,48.4987
2023-05-02T11:23:58.407Z,54.3077
2023-05-02T11:25:00.418Z,59.3978
2023-05-02T11:26:02.128Z,63.5571
2023-05-02T11:27:03.933Z,65.3881
2023-05-02T11:28:05.770Z,53.6390
2023-05-02T11:29:07.618Z,49.2218
2023-05-02T11:30:09.580Z,54.4544
2023-05-02T11:31:11.291Z,59.4835
2023-05-02T11:32:13.177Z,63.6395
2023-05-02T11:33:15.039Z,66.6676
2023-05-02T11:34:16.793Z,57.8346
2023-05-02T11:35:18.624Z,46.5019
2023-05-02T11:36:20.483Z,49.6098
2023-05-02T11:37:22.319Z,55.3845
2023-05-02T11:38:24.152Z,60.3070
2023-05-02T11:39:25.987Z,64.2647
2023-05-02T11:40:27.831Z,63.6707
2023-05-02T11:41:29.656Z,50.2031
2023-05-02T11:42:31.518Z,47.8122
2023-05-02T11:43:33.356Z,53.4040
2023-05-02T11:44:35.177Z,58.6744
2023-05-02T11:45:37.002Z,62.9450
2023-05-02T11:46:39.001Z,65.7736
2023-05-02T11:47:40.739Z,55.8852
2023-05-02T11:48:42.516Z,47.7207
2023-05-02T11:49:44.351Z,52.2429
2023-05-02T11:50:49.674Z,57.6094
2023-05-02T11:51:48.032Z,62.1507
2023-05-02T11:52:49.869Z,65.8216
2023-05-02T11:53:51.715Z,61.2593
2023-05-02T11:54:53.568Z,48.2637
2023-05-02T11:55:55.396Z,49.5226
2023-05-02T11:56:57.226Z,55.2470
2023-05-02T11:57:59.057Z,60.1810
2023-05-02T11:59:00.913Z,64.1958
2023-05-02T12:00:02.752Z,65.1649
2023-05-02T12:01:04.575Z,52.4426
2023-05-02T12:02:06.410Z,47.8181
2023-05-02T12:03:08.378Z,53.1425
2023-05-02T12:04:10.092Z,58.4305
2023-05-02T12:05:11.980Z,62.7735
2023-05-02T12:06:14.113Z,66.1088
2023-05-02T12:07:15.637Z,58.1875
2023-05-02T12:08:17.444Z,48.5168
2023-05-02T12:09:19.338Z,52.4456
2023-05-02T12:10:21.123Z,57.8006
2023-05-02T12:11:22.958Z,62.2431
2023-05-02T12:12:24.791Z,65.9094
2023-05-02T12:13:26.651Z,62.4407
2023-05-02T12:14:28.451Z,48.4825
2023-05-02T12:15:30.291Z,47.7876
2023-05-02T12:16:32.143Z,53.6441
2023-05-02T12:17:34.006Z,58.7885
2023-05-02T12:18:35.833Z,62.9734
2023-05-02T12:19:37.652Z,65.3503
2023-05-02T12:20:39.492Z,54.3580
2023-05-02T12:21:41.313Z,45.0191
2023-05-02T12:22:43.144Z,49.2220
2023-05-02T12:23:44.995Z,55.0282
2023-05-02T12:24:46.825Z,59.9398
2023-05-02T12:25:48.667Z,63.9368
2023-05-02T12:26:51.872Z,62.2089
2023-05-02T12:27:52.335Z,48.6625
2023-05-02T12:28:54.184Z,47.3659
2023-05-02T12:29:56.005Z,53.1903
2023-05-02T12:30:57.833Z,58.4136
2023-05-02T12:31:59.797Z,62.6546
2023-05-02T12:33:01.562Z,65.3460
2023-05-02T12:34:03.375Z,57.1755
2023-05-02T12:35:05.805Z,56.9841
2023-05-02T12:36:07.042Z,61.4059
2023-05-02T12:37:08.871Z,65.1790
2023-05-02T12:38:10.696Z,68.2827
2023-05-02T12:39:12.539Z,68.0226
2023-05-02T12:40:14.409Z,53.6669
2023-05-02T12:41:16.207Z,44.1450
2023-05-02T12:42:18.051Z,48.3672
2023-05-02T12:43:19.885Z,54.4035
2023-05-02T12:44:21.730Z,59.4312
2023-05-02T12:45:23.580Z,63.5180
2023-05-02T12:46:25.491Z,62.6292
2023-05-02T12:47:27.399Z,49.9826
2023-05-02T12:48:29.098Z,49.8830
2023-05-02T12:49:30.939Z,55.3328
2023-05-02T12:50:32.771Z,60.1966
2023-05-02T12:51:34.877Z,64.1762
2023-05-02T12:52:36.460Z,65.5919
2023-05-02T12:53:38.285Z,53.1891
2023-05-02T12:54:40.115Z,45.9650
2023-05-02T12:55:41.964Z,50.9608
2023-05-02T12:56:43.951Z,56.5034
2023-05-02T12:57:45.645Z,61.1288
2023-05-02T12:58:47.498Z,64.8936
2023-05-02T12:59:49.308Z,60.3617
2023-05-02T13:00:51.174Z,48.1945
2023-05-02T13:01:52.978Z,50.2278
2023-05-02T13:02:54.854Z,55.8262
2023-05-02T13:03:56.659Z,60.5985
2023-05-02T13:04:58.496Z,64.3975
2023-05-02T13:06:00.379Z,64.4693
2023-05-02T13:07:02.225Z,51.7619
2023-05-02T13:08:04.086Z,50.3741
2023-05-02T13:09:05.872Z,55.7445
2023-05-02T13:10:07.737Z,60.5260
2023-05-02T13:11:09.542Z,64.4070
2023-05-02T13:12:11.394Z,66.3169
2023-05-02T13:13:13.245Z,54.5720
2023-05-02T13:14:15.073Z,46.0898
2023-05-02T13:15:16.936Z,50.6896
2023-05-02T13:16:18.942Z,56.2668
2023-05-02T13:17:20.715Z,60.9841
2023-05-02T13:18:22.451Z,64.7919
2023-05-02T13:19:24.261Z,61.5105
2023-05-02T13:20:26.094Z,50.0562
2023-05-02T13:21:27.927Z,52.5235
2023-05-02T13:22:29.772Z,57.7822
2023-05-02T13:23:31.592Z,62.2009
2023-05-02T13:24:33.419Z,65.7771
2023-05-02T13:25:35.260Z,64.5522
2023-05-02T13:26:37.150Z,50.6364
2023-05-02T13:27:38.949Z,48.5080
2023-05-02T13:28:40.838Z,54.1958
2023-05-02T13:29:42.667Z,59.1844
2023-05-02T13:30:44.527Z,63.3789
2023-05-02T13:31:46.342Z,65.9083
2023-05-02T13:32:48.203Z,55.4244
2023-05-02T13:33:50.014Z,46.9570
2023-05-02T13:34:51.854Z,51.5349
2023-05-02T13:35:53.696Z,56.9931
2023-05-02T13:36:55.536Z,61.6077
2023-05-02T13:37:57.371Z,65.1772
2023-05-02T13:38:59.225Z,61.4734
2023-05-02T13:40:01.226Z,53.0245
2023-05-02T13:41:02.884Z,56.5913
2023-05-02T13:42:06.100Z,61.2193
2023-05-02T13:43:06.551Z,65.0474
2023-05-02T13:44:08.390Z,68.0295
2023-05-02T13:45:10.251Z,62.4258
2023-05-02T13:46:12.112Z,48.2594
2023-05-02T13:47:13.915Z,48.3661
2023-05-02T13:48:15.779Z,54.2255
2023-05-02T13:49:17.588Z,59.2908
2023-05-02T13:50:19.438Z,63.3510
2023-05-02T13:51:21.282Z,65.1993
2023-05-02T13:52:23.113Z,53.2984
2023-05-02T13:53:24.948Z,46.3151
2023-05-02T13:54:26.792Z,51.3664
2023-05-02T13:55:28.634Z,56.8240
2023-05-02T13:56:30.470Z,61.3507
2023-05-02T13:57:32.315Z,65.0205
2023-05-02T13:58:34.183Z,60.0161
2023-05-02T13:59:36.132Z,48.7557
2023-05-02T14:00:37.806Z,51.7211
2023-05-02T14:01:39.703Z,57.1180
2023-05-02T14:02:41.590Z,61.6023
2023-05-02T14:03:43.409Z,65.2098
2023-05-02T14:04:45.153Z,63.6738
2023-05-02T14:05:47.001Z,50.4242
2023-05-02T14:06:48.898Z,50.1717
2023-05-02T14:07:50.673Z,55.7063
2023-05-02T14:08:52.597Z,60.4382
2023-05-02T14:09:54.348Z,64.2684
2023-05-02T14:10:56.240Z,65.7245
2023-05-02T14:11:58.041Z,53.3220
2023-05-02T14:12:59.869Z,46.2435
2023-05-02T14:14:01.705Z,51.2833
2023-05-02T14:15:03.643Z,56.7241
2023-05-02T14:16:05.433Z,61.2559
2023-05-02T14:17:07.237Z,64.9816
2023-05-02T14:18:09.311Z,60.0632
2023-05-02T14:19:19.556Z,52.1237
2023-05-02T14:20:12.744Z,56.2681
2023-05-02T14:21:14.562Z,60.8261
2023-05-02T14:22:16.406Z,64.6416
2023-05-02T14:23:18.235Z,67.6640
2023-05-02T14:24:20.072Z,61.4744
2023-05-02T14:25:21.917Z,48.1464
2023-05-02T14:26:23.764Z,49.4995
2023-05-02T14:27:25.597Z,55.2247
2023-05-02T14:28:27.430Z,60.1655
2023-05-02T14:29:29.274Z,64.0684
2023-05-02T14:30:31.108Z,64.8463
2023-05-02T14:31:33.015Z,53.0393
2023-05-02T14:32:34.865Z,52.0029
2023-05-02T14:33:36.616Z,57.1605
2023-05-02T14:34:38.460Z,61.6396
2023-05-02T14:35:40.286Z,65.2503
2023-05-02T14:36:42.120Z,66.6126
2023-05-02T14:37:43.957Z,54.1199
2023-05-02T14:38:45.813Z,47.3934
2023-05-02T14:39:50.735Z,52.4757
2023-05-02T14:40:49.469Z,57.8626
2023-05-02T14:41:51.312Z,62.1898
2023-05-02T14:42:53.164Z,65.6854
2023-05-02T14:43:54.978Z,59.5758
2023-05-02T14:44:58.906Z,49.8645
2023-05-02T14:45:58.648Z,53.5769
2023-05-02T14:47:00.544Z,58.6788
2023-05-02T14:48:02.392Z,62.7821
2023-05-02T14:49:04.169Z,66.2041
2023-05-02T14:50:06.075Z,62.5205
2023-05-02T14:51:07.826Z,49.0520
2023-05-02T14:52:09.681Z,49.5541
2023-05-02T14:53:11.512Z,55.3142
2023-05-02T14:54:13.360Z,60.1688
2023-05-02T14:55:15.190Z,64.0924
2023-05-02T14:56:17.021Z,65.4042
2023-05-02T14:57:18.895Z,53.2047
2023-05-02T14:58:21.040Z,49.5386
2023-05-02T14:59:22.673Z,54.7925
2023-05-02T15:00:24.370Z,59.7537
2023-05-02T15:01:26.294Z,63.7439
2023-05-02T15:02:28.123Z,66.4183
2023-05-02T15:03:30.026Z,56.7215
2023-05-02T15:04:31.990Z,47.4393
2023-05-02T15:05:33.536Z,51.7217
2023-05-02T15:06:35.975Z,57.1734
2023-05-02T15:07:37.226Z,61.6567
2023-05-02T15:08:39.274Z,65.2517
2023-05-02T15:09:40.908Z,61.7960
2023-05-02T15:10:42.740Z,49.0667
2023-05-02T15:11:44.585Z,50.3420
2023-05-02T15:12:46.408Z,55.8502
2023-05-02T15:13:48.271Z,60.5282
2023-05-02T15:14:50.094Z,64.3071
2023-05-02T15:15:51.949Z,64.9335
2023-05-02T15:16:53.825Z,51.6103
2023-05-02T15:17:55.696Z,44.5393
2023-05-02T15:18:57.458Z,49.6840
2023-05-02T15:19:59.426Z,55.4285
2023-05-02T15:21:01.130Z,60.1591
2023-05-02T15:22:02.981Z,63.9546
2023-05-02T15:23:04.865Z,60.1072
2023-05-02T15:24:06.663Z,49.4242
2023-05-02T15:25:08.500Z,52.4875
2023-05-02T15:26:10.330Z,57.6457
2023-05-02T15:27:12.182Z,62.0420
2023-05-02T15:28:14.039Z,65.6154
2023-05-02T15:29:15.849Z,63.5614
2023-05-02T15:30:18.092Z,50.9169
2023-05-02T15:31:19.563Z,51.6725
2023-05-02T15:32:21.451Z,57.0244
2023-05-02T15:33:23.206Z,61.6088
2023-05-02T15:34:25.074Z,65.1684
2023-05-02T15:35:26.890Z,65.5837
2023-05-02T15:36:28.766Z,52.2366
2023-05-02T15:37:30.582Z,47.2250
2023-05-02T15:38:32.399Z,52.7624
2023-05-02T15:39:34.253Z,58.0302
2023-05-02T15:40:36.080Z,62.3142
2023-05-02T15:41:37.928Z,65.6131
2023-05-02T15:42:39.773Z,58.1523
2023-05-02T15:43:41.608Z,49.0900
2023-05-02T15:44:43.446Z,53.1928
2023-05-02T15:45:45.278Z,58.3180
2023-05-02T15:46:47.349Z,62.5142
2023-05-02T15:47:48.942Z,65.8694
2023-05-02T15:48:50.813Z,61.5436
2023-05-02T15:49:52.614Z,47.6566
2023-05-02T15:50:54.485Z,47.4546
2023-05-02T15:51:56.316Z,53.4452
2023-05-02T15:52:58.151Z,58.6503
2023-05-02T15:53:59.967Z,62.7938
2023-05-02T15:55:01.837Z,65.0536
2023-05-02T15:56:03.637Z,54.7613
2023-05-02T15:57:05.476Z,52.2878
2023-05-02T15:58:07.294Z,57.2620
2023-05-02T15:59:09.131Z,61.6872
2023-05-02T16:00:10.981Z,65.2051
2023-05-02T16:01:12.855Z,67.1706
2023-05-02T16:02:14.657Z,55.9373
2023-05-02T16:03:16.494Z,49.7967
2023-05-02T16:04:18.349Z,54.7826
2023-05-02T16:05:20.167Z,59.6821
2023-05-02T16:06:22.048Z,63.7220
2023-05-02T16:07:23.848Z,66.8201
2023-05-02T16:08:25.685Z,59.0296
2023-05-02T16:09:27.516Z,46.3989
2023-05-02T16:10:29.357Z,48.1766
2023-05-02T16:11:31.259Z,54.1275
2023-05-02T16:12:33.034Z,59.1410
2023-05-02T16:13:34.881Z,63.2331
2023-05-02T16:14:36.727Z,64.1515
2023-05-02T16:15:38.557Z,51.5715
2023-05-02T16:16:40.593Z,47.7437
2023-05-02T16:17:42.274Z,53.2433
2023-05-02T16:18:44.091Z,58.3463
2023-05-02T16:19:45.927Z,62.4582
2023-05-02T16:20:47.794Z,65.5532
2023-05-02T16:21:49.610Z,57.0467
2023-05-02T16:22:51.451Z,50.4227
2023-05-02T16:23:53.279Z,55.0608
2023-05-02T16:24:55.133Z,59.9142
2023-05-02T16:25:56.966Z,63.8391
2023-05-02T16:26:58.829Z,66.9083
2023-05-02T16:28:00.648Z,59.9971
2023-05-02T16:29:02.496Z,52.8780
2023-05-02T16:30:04.604Z,57.1067
2023-05-02T16:31:06.229Z,61.6422
2023-05-02T16:32:08.035Z,65.3100
2023-05-02T16:33:09.902Z,67.9680
2023-05-02T16:34:11.696Z,60.3004
2023-05-02T16:35:13.560Z,46.9993
2023-05-02T16:36:15.375Z,48.3353
2023-05-02T16:37:17.244Z,54.2900
2023-05-02T16:38:19.065Z,59.3451
2023-05-02T16:39:20.926Z,63.3749
2023-05-02T16:40:22.749Z,64.5815
2023-05-02T16:41:24.605Z,54.5118
2023-05-02T16:42:26.420Z,55.0349
2023-05-02T16:43:28.267Z,59.7167
2023-05-02T16:44:30.103Z,63.5435
2023-05-02T16:45:31.957Z,66.7519
2023-05-02T16:46:33.849Z,66.3685
2023-05-02T16:47:35.637Z,52.1964
2023-05-02T16:48:37.467Z,44.2787
2023-05-02T16:49:39.313Z,49.2577
2023-05-02T16:50:41.143Z,55.2015
2023-05-02T16:51:43.014Z,60.0741
2023-05-02T16:52:44.827Z,63.8996
2023-05-02T16:53:46.647Z,61.2065
2023-05-02T16:54:48.498Z,53.7183
2023-05-02T16:55:50.343Z,57.4633
2023-05-02T16:56:52.175Z,61.7925
2023-05-02T16:57:53.993Z,65.2907
2023-05-02T16:58:55.854Z,68.0895
2023-05-02T16:59:57.670Z,61.8191
2023-05-02T17:00:59.562Z,47.2310
2023-05-02T17:02:01.395Z,46.1088
2023-05-02T17:03:05.212Z,52.2185
2023-05-02T17:04:05.029Z,57.5767
2023-05-02T17:05:06.891Z,61.9811
2023-05-02T17:06:08.731Z,64.7265
2023-05-02T17:07:10.554Z,56.1120
2023-05-02T17:08:12.408Z,54.5524
2023-05-02T17:09:14.239Z,59.2250
2023-05-02T17:10:16.112Z,63.1781
2023-05-02T17:11:17.916Z,66.4756
2023-05-02T17:12:19.781Z,67.5350
2023-05-02T17:13:21.598Z,54.7346
2023-05-02T17:14:23.447Z,46.2490
2023-05-02T17:15:25.287Z,50.9068
2023-05-02T17:16:27.150Z,56.4792
2023-05-02T17:17:28.968Z,61.1606
2023-05-02T17:18:30.788Z,64.8294
2023-05-02T17:19:32.649Z,61.2193
2023-05-02T17:20:34.470Z,49.7804
2023-05-02T17:21:36.301Z,52.3419
2023-05-02T17:22:38.163Z,57.5560
2023-05-02T17:23:39.982Z,61.9307
2023-05-02T17:24:41.825Z,65.3806
2023-05-02T17:25:43.675Z,64.0481
2023-05-02T17:26:45.511Z,50.1077
2023-05-02T17:27:47.495Z,47.7890
2023-05-02T17:28:49.195Z,53.4571
2023-05-02T17:29:51.029Z,58.5594
2023-05-02T17:30:52.926Z,62.6988
2023-05-02T17:31:54.775Z,65.2995
2023-05-02T17:32:56.672Z,55.5416
2023-05-02T17:33:58.446Z,46.8997
2023-05-02T17:35:00.313Z,51.3420
2023-05-02T17:36:02.139Z,56.7788
2023-05-02T17:37:03.992Z,61.1881
2023-05-02T17:38:05.804Z,64.7375
2023-05-02T17:39:07.640Z,61.0665
2023-05-02T17:40:09.494Z,49.0435
2023-05-02T17:41:11.343Z,50.9828
2023-05-02T17:42:13.182Z,56.4290
2023-05-02T17:43:15.025Z,60.9845
2023-05-02T17:44:16.862Z,64.6075
2023-05-02T17:45:18.686Z,64.3800
2023-05-02T17:46:20.638Z,51.2416
2023-05-02T17:47:22.367Z,48.9525
2023-05-02T17:48:24.229Z,54.3851
2023-05-02T17:49:26.041Z,59.3313